Time;durP1;ratioP1;P1;durP2;ratioP2;P2;SDS_P1;SDS_P2;PMS_P1;PMS_P2;Temp;Humidity;BMP_temperature;BMP_pressure;BME280_temperature;BME280_humidity;BME280_pressure;Samples;Min_cycle;Max_cycle;Signal;HPM_P1;HPM_P2
2023/11/14 00:02:25;;;;;;;10.40;4.07;;;12.10;99.90;;;;;;5042492;28;20453;-40
2023/11/14 00:04:51;;;;;;;13.43;5.27;;;12.20;99.90;;;;;;5047187;28;20425;-34
2023/11/14 00:07:17;;;;;;;27.40;6.93;;;12.20;99.90;;;;;;5061210;28;20545;-38
2023/11/14 00:09:44;;;;;;;17.03;4.80;;;12.20;99.90;;;;;;5060886;28;20520;-37
2023/11/14 00:12:13;;;;;;;12.20;4.77;;;12.20;99.90;;;;;;5042135;28;20435;-38
2023/11/14 00:14:46;;;;;;;14.83;3.90;;;12.10;99.90;;;;;;5042493;28;20487;-37
2023/11/14 00:17:13;;;;;;;21.07;4.17;;;12.10;99.90;;;;;;5060540;28;20447;-39
2023/11/14 00:19:42;;;;;;;11.53;3.67;;;12.10;99.90;;;;;;5042541;28;20748;-38
2023/11/14 00:22:09;;;;;;;17.83;4.70;;;12.10;99.90;;;;;;5060124;28;20433;-42
2023/11/14 00:24:35;;;;;;;13.00;4.70;;;12.10;99.90;;;;;;5022981;28;20428;-38
2023/11/14 00:27:01;;;;;;;13.33;5.60;;;12.10;99.90;;;;;;5053653;28;20562;-39
2023/11/14 00:29:35;;;;;;;10.83;3.83;;;12.20;99.90;;;;;;5057332;28;20505;-40
2023/11/14 00:32:06;;;;;;;18.83;6.50;;;12.20;99.90;;;;;;5042035;28;20476;-40
2023/11/14 00:34:32;;;;;;;10.17;3.67;;;12.20;99.90;;;;;;5023876;28;20497;-37
2023/11/14 00:36:58;;;;;;;15.90;5.40;;;12.10;99.90;;;;;;5025837;28;20918;-38
2023/11/14 00:39:27;;;;;;;15.33;4.30;;;12.10;99.90;;;;;;5042714;28;20424;-40
2023/11/14 00:41:56;;;;;;;13.23;4.33;;;12.10;99.90;;;;;;5064283;28;20649;-40
2023/11/14 00:44:23;;;;;;;16.87;4.00;;;12.10;99.90;;;;;;5046423;28;20424;-41
2023/11/14 00:46:49;;;;;;;20.60;4.83;;;12.10;99.90;;;;;;5029820;28;20444;-38
2023/11/14 00:49:17;;;;;;;17.93;4.97;;;12.10;99.90;;;;;;5063799;28;21126;-35
2023/11/14 00:51:45;;;;;;;16.97;4.70;;;12.10;99.90;;;;;;5045957;28;20456;-37
2023/11/14 00:54:11;;;;;;;12.63;4.67;;;12.10;99.90;;;;;;5031148;28;20824;-39
2023/11/14 00:56:40;;;;;;;19.50;4.17;;;12.10;99.90;;;;;;5078781;28;20451;-37
2023/11/14 00:59:08;;;;;;;16.83;4.40;;;12.10;99.90;;;;;;5042420;28;20414;-39
2023/11/14 01:01:37;;;;;;;16.50;4.80;;;12.20;99.90;;;;;;5009133;28;20210;-41
2023/11/14 01:04:03;;;;;;;17.63;4.13;;;12.20;99.90;;;;;;5025608;28;20522;-38
2023/11/14 01:06:31;;;;;;;15.40;4.20;;;12.20;99.90;;;;;;5045529;28;20479;-38
2023/11/14 01:08:59;;;;;;;23.15;4.65;;;12.20;99.90;;;;;;5028762;28;20434;-42
2023/11/14 01:11:25;;;;;;;14.83;3.70;;;12.20;99.90;;;;;;5063138;28;20208;-38
2023/11/14 01:13:51;;;;;;;12.70;4.33;;;12.20;99.90;;;;;;5011950;28;20506;-39
2023/11/14 01:16:19;;;;;;;13.50;4.40;;;12.20;99.90;;;;;;5045471;28;20444;-39
2023/11/14 01:18:45;;;;;;;16.87;5.33;;;12.20;99.90;;;;;;5026210;28;20508;-39
2023/11/14 01:21:16;;;;;;;20.90;5.80;;;12.20;99.90;;;;;;5044940;28;20417;-36
2023/11/14 01:23:43;;;;;;;18.93;5.33;;;12.20;99.90;;;;;;5049064;28;20212;-38
2023/11/14 01:26:09;;;;;;;15.00;5.50;;;12.20;99.90;;;;;;5065392;28;20410;-38
2023/11/14 01:28:38;;;;;;;17.75;5.93;;;12.30;99.90;;;;;;5048674;28;20424;-34
2023/11/14 01:31:04;;;;;;;25.57;5.30;;;12.30;99.90;;;;;;5065362;28;20207;-39
2023/11/14 01:33:30;;;;;;;18.33;4.87;;;12.30;99.90;;;;;;5065279;28;20454;-38
2023/11/14 01:35:56;;;;;;;18.17;5.07;;;12.30;99.90;;;;;;5065725;28;20431;-38
2023/11/14 01:38:24;;;;;;;14.02;4.47;;;12.30;99.90;;;;;;5050560;28;20426;-39
2023/11/14 01:40:53;;;;;;;18.33;4.43;;;12.30;99.90;;;;;;5067367;28;20660;-39
2023/11/14 01:43:22;;;;;;;14.20;4.77;;;12.30;99.90;;;;;;5083604;28;20201;-40
2023/11/14 01:45:48;;;;;;;13.93;5.07;;;12.30;99.90;;;;;;5065326;28;20447;-35
2023/11/14 01:48:19;;;;;;;20.50;4.50;;;12.30;99.90;;;;;;5048802;28;20421;-42
2023/11/14 01:50:45;;;;;;;17.60;5.17;;;12.40;99.90;;;;;;5064858;28;20596;-37
2023/11/14 01:53:14;;;;;;;18.73;5.60;;;12.40;99.90;;;;;;5031189;28;20467;-40
2023/11/14 01:55:40;;;;;;;14.03;4.23;;;12.30;99.90;;;;;;5072971;28;20182;-41
2023/11/14 01:58:11;;;;;;;22.15;5.88;;;12.30;99.90;;;;;;5042079;28;20424;-39
2023/11/14 02:00:37;;;;;;;14.67;4.20;;;12.30;99.90;;;;;;5028674;28;20918;-39
2023/11/14 02:03:04;;;;;;;17.37;4.83;;;12.30;99.90;;;;;;5044801;28;20450;-41
2023/11/14 02:05:30;;;;;;;21.25;4.88;;;12.30;99.90;;;;;;5045086;28;20476;-40
2023/11/14 02:07:59;;;;;;;17.42;4.90;;;12.30;99.90;;;;;;5028798;28;20211;-39
2023/11/14 02:10:25;;;;;;;16.53;4.53;;;12.40;99.90;;;;;;5063373;28;20182;-37
2023/11/14 02:12:51;;;;;;;15.80;4.78;;;12.40;99.90;;;;;;5041273;28;20450;-38
2023/11/14 02:15:21;;;;;;;15.80;4.60;;;12.40;99.90;;;;;;5041092;28;20807;-39
2023/11/14 02:17:50;;;;;;;15.87;5.07;;;12.40;99.90;;;;;;5045076;28;20496;-40
2023/11/14 02:20:16;;;;;;;16.10;4.63;;;12.40;99.90;;;;;;5029200;28;21356;-37
2023/11/14 02:22:43;;;;;;;20.33;4.88;;;12.40;99.90;;;;;;5044897;28;20449;-40
2023/11/14 02:25:09;;;;;;;16.57;4.53;;;12.30;99.90;;;;;;5053160;28;20422;-41
2023/11/14 02:27:43;;;;;;;29.63;5.23;;;12.40;99.90;;;;;;5041651;28;20424;-39
2023/11/14 02:30:11;;;;;;;14.50;4.17;;;12.40;99.90;;;;;;5044934;28;20448;-41
2023/11/14 02:32:37;;;;;;;18.70;4.40;;;12.30;99.90;;;;;;5039480;28;20972;-38
2023/11/14 02:35:04;;;;;;;24.00;4.90;;;12.30;99.90;;;;;;5039736;28;21040;-41
2023/11/14 02:37:33;;;;;;;20.87;5.37;;;12.30;99.90;;;;;;5044715;28;20412;-38
2023/11/14 02:40:01;;;;;;;20.40;5.20;;;12.30;99.90;;;;;;5027574;28;20416;-39
2023/11/14 02:42:29;;;;;;;16.37;4.30;;;12.20;99.90;;;;;;5043979;28;20227;-41
2023/11/14 02:44:55;;;;;;;12.80;4.67;;;12.20;99.90;;;;;;5035088;28;20492;-40
2023/11/14 02:47:21;;;;;;;14.00;4.10;;;12.20;99.90;;;;;;5064148;28;20542;-37
2023/11/14 02:50:05;;;;;;;18.10;4.97;;;12.20;99.90;;;;;;5047165;28;21001;-40
2023/11/14 02:52:37;;;;;;;21.43;4.70;;;12.20;99.90;;;;;;5063730;28;20444;-36
2023/11/14 02:55:07;;;;;;;23.10;4.90;;;12.20;99.90;;;;;;5047872;28;20472;-35
2023/11/14 02:57:33;;;;;;;15.93;4.53;;;12.20;99.90;;;;;;5023776;28;20474;-37
2023/11/14 02:59:59;;;;;;;15.03;5.17;;;12.20;99.90;;;;;;5040628;28;20463;-38
2023/11/14 03:02:25;;;;;;;18.83;5.00;;;12.20;99.90;;;;;;5039993;28;20461;-39
2023/11/14 03:04:52;;;;;;;11.98;4.63;;;12.20;99.90;;;;;;5023565;28;20203;-41
2023/11/14 03:07:18;;;;;;;15.23;5.17;;;12.20;99.90;;;;;;5041421;28;20661;-37
2023/11/14 03:09:46;;;;;;;19.03;5.73;;;12.30;99.90;;;;;;5023321;28;20861;-37
2023/11/14 03:12:17;;;;;;;18.80;4.60;;;12.20;99.90;;;;;;5039877;28;20452;-40
2023/11/14 03:14:43;;;;;;;16.75;4.10;;;12.20;99.90;;;;;;5041667;28;21266;-41
2023/11/14 03:17:09;;;;;;;22.70;5.88;;;12.20;99.90;;;;;;5041987;28;20192;-39
2023/11/14 03:19:40;;;;;;;14.83;4.70;;;12.30;99.90;;;;;;5039985;28;20187;-40
2023/11/14 03:22:06;;;;;;;21.65;4.97;;;12.40;99.90;;;;;;5041321;28;20925;-37
2023/11/14 03:24:32;;;;;;;12.17;4.83;;;12.40;99.90;;;;;;5040271;28;20191;-38
2023/11/14 03:27:01;;;;;;;26.23;4.87;;;12.40;99.90;;;;;;5023704;28;20512;-42
2023/11/14 03:29:27;;;;;;;16.90;6.17;;;12.40;99.90;;;;;;5041482;28;20465;-38
2023/11/14 03:31:56;;;;;;;17.57;4.80;;;12.30;99.90;;;;;;5023216;28;20464;-38
2023/11/14 03:34:24;;;;;;;21.85;5.45;;;12.30;99.90;;;;;;5039771;28;20565;-38
2023/11/14 03:36:54;;;;;;;12.30;4.43;;;12.30;99.90;;;;;;5023664;28;20993;-38
2023/11/14 03:39:21;;;;;;;17.53;5.37;;;12.30;99.90;;;;;;5039964;28;20417;-36
2023/11/14 03:41:47;;;;;;;18.30;4.57;;;12.30;99.90;;;;;;5039642;28;20460;-41
2023/11/14 03:44:13;;;;;;;15.43;4.80;;;12.30;99.90;;;;;;5040815;28;20421;-40
2023/11/14 03:46:40;;;;;;;12.70;4.53;;;12.30;99.90;;;;;;5041423;28;20560;-40
2023/11/14 03:49:06;;;;;;;15.27;4.93;;;12.30;99.90;;;;;;5042088;28;20426;-40
2023/11/14 03:51:34;;;;;;;18.17;4.40;;;12.20;99.90;;;;;;5040092;28;20454;-37
2023/11/14 03:54:00;;;;;;;12.70;4.53;;;12.20;99.90;;;;;;5039894;28;20471;-38
2023/11/14 03:56:26;;;;;;;21.30;4.70;;;12.20;99.90;;;;;;5050212;28;20428;-39
2023/11/14 03:58:55;;;;;;;15.93;4.83;;;12.20;99.90;;;;;;5056536;28;20532;-38
2023/11/14 04:01:21;;;;;;;14.65;4.72;;;12.20;99.90;;;;;;5034710;28;20597;-42
2023/11/14 04:03:49;;;;;;;15.37;4.90;;;12.20;99.90;;;;;;5006783;28;20211;-40
2023/11/14 04:06:18;;;;;;;13.02;5.18;;;12.20;99.90;;;;;;5022805;28;20422;-40
2023/11/14 04:08:44;;;;;;;14.00;3.90;;;12.30;99.90;;;;;;5006201;28;20182;-37
2023/11/14 04:11:13;;;;;;;15.80;5.87;;;12.30;99.90;;;;;;5041119;28;20195;-36
2023/11/14 04:13:43;;;;;;;15.87;4.83;;;12.40;99.90;;;;;;5023408;28;20458;-36
2023/11/14 04:16:10;;;;;;;16.15;5.07;;;12.40;99.90;;;;;;5035450;28;20454;-40
2023/11/14 04:18:36;;;;;;;20.57;5.30;;;12.30;99.90;;;;;;5030001;28;20995;-37
2023/11/14 04:21:05;;;;;;;19.63;4.13;;;12.40;99.90;;;;;;5064842;28;20443;-39
2023/11/14 04:23:31;;;;;;;21.07;6.03;;;12.30;99.90;;;;;;5035427;28;21301;-41
2023/11/14 04:25:59;;;;;;;18.17;6.33;;;12.30;99.90;;;;;;5026578;28;20431;-40
2023/11/14 04:28:28;;;;;;;18.77;5.57;;;12.30;99.90;;;;;;5051606;28;20460;-40
2023/11/14 04:30:56;;;;;;;14.10;4.37;;;12.30;99.90;;;;;;5049820;28;21085;-40
2023/11/14 04:33:23;;;;;;;15.40;6.20;;;12.20;99.90;;;;;;5085338;28;20483;-40
2023/11/14 04:35:49;;;;;;;19.53;5.40;;;12.20;99.90;;;;;;5085065;28;20494;-42
2023/11/14 04:38:17;;;;;;;16.07;5.03;;;12.20;99.90;;;;;;5063531;28;20590;-39
2023/11/14 04:40:43;;;;;;;16.67;6.10;;;12.20;99.90;;;;;;5063292;28;20558;-37
2023/11/14 04:43:12;;;;;;;20.53;5.20;;;12.20;99.90;;;;;;5057271;28;21017;-41
2023/11/14 04:45:40;;;;;;;13.07;4.90;;;12.20;99.90;;;;;;5037879;28;20418;-41
2023/11/14 04:48:12;;;;;;;13.23;5.40;;;12.20;99.90;;;;;;5046299;28;20412;-40
2023/11/14 04:50:41;;;;;;;12.83;4.77;;;12.20;99.90;;;;;;5064375;28;20463;-40
2023/11/14 04:53:12;;;;;;;14.47;6.20;;;12.20;99.90;;;;;;5064636;28;20469;-39
2023/11/14 04:55:38;;;;;;;16.40;6.00;;;12.20;99.90;;;;;;5064250;28;20418;-34
2023/11/14 04:58:08;;;;;;;11.80;4.40;;;12.20;99.90;;;;;;5050728;28;21024;-34
2023/11/14 05:00:39;;;;;;;13.03;4.50;;;12.20;99.90;;;;;;5035863;28;20537;-40
2023/11/14 05:03:05;;;;;;;16.10;4.47;;;12.20;99.90;;;;;;5046230;28;20855;-38
2023/11/14 05:05:32;;;;;;;14.80;4.87;;;12.20;99.90;;;;;;5063894;28;20434;-40
2023/11/14 05:08:01;;;;;;;14.77;4.40;;;12.30;99.90;;;;;;5063410;28;20444;-38
2023/11/14 05:10:30;;;;;;;15.07;4.90;;;12.30;99.90;;;;;;5063623;28;20429;-39
2023/11/14 05:12:57;;;;;;;18.67;4.90;;;12.30;99.90;;;;;;5044954;28;20460;-34
2023/11/14 05:15:23;;;;;;;15.35;5.13;;;12.30;99.90;;;;;;5063328;28;20268;-38
2023/11/14 05:17:49;;;;;;;13.90;4.87;;;12.30;99.90;;;;;;5042648;28;20188;-39
2023/11/14 05:20:15;;;;;;;9.77;4.73;;;12.30;99.90;;;;;;5043682;28;20437;-35
2023/11/14 05:22:47;;;;;;;13.63;4.63;;;12.30;99.90;;;;;;5043795;28;20448;-40
2023/11/14 05:25:22;;;;;;;13.80;5.60;;;12.30;99.90;;;;;;5025332;28;20921;-36
2023/11/14 05:27:51;;;;;;;15.37;5.73;;;12.30;99.90;;;;;;5057559;28;20428;-39
2023/11/14 05:30:22;;;;;;;14.00;4.73;;;12.30;99.90;;;;;;5044152;28;20428;-39
2023/11/14 05:32:50;;;;;;;11.63;4.00;;;12.30;99.90;;;;;;5055354;28;20452;-40
2023/11/14 05:35:16;;;;;;;16.70;5.27;;;12.30;99.90;;;;;;5064560;28;20464;-39
2023/11/14 05:37:44;;;;;;;16.43;4.93;;;12.30;99.90;;;;;;5065088;28;20434;-38
2023/11/14 05:40:10;;;;;;;17.13;4.55;;;12.30;99.90;;;;;;5064751;28;21317;-37
2023/11/14 05:42:36;;;;;;;17.60;5.40;;;12.30;99.90;;;;;;5074053;28;20239;-40
2023/11/14 05:45:08;;;;;;;20.47;5.27;;;12.40;99.90;;;;;;5060691;28;20712;-40
2023/11/14 05:47:39;;;;;;;12.30;5.40;;;12.40;99.90;;;;;;5056861;28;20433;-37
2023/11/14 05:50:05;;;;;;;13.10;5.30;;;12.30;99.90;;;;;;5042040;28;20554;-41
2023/11/14 05:52:31;;;;;;;17.70;4.90;;;12.30;99.90;;;;;;5008282;28;21010;-41
2023/11/14 05:54:57;;;;;;;23.63;5.30;;;12.30;99.90;;;;;;5036217;28;20468;-39
2023/11/14 05:57:24;;;;;;;19.30;4.82;;;12.30;99.90;;;;;;5058414;28;20429;-39
2023/11/14 05:59:51;;;;;;;17.47;5.80;;;12.30;99.90;;;;;;5083503;28;20187;-39
2023/11/14 06:02:18;;;;;;;14.53;4.60;;;12.30;99.90;;;;;;5050522;28;20896;-40
2023/11/14 06:04:46;;;;;;;13.18;4.25;;;12.30;99.90;;;;;;5049696;28;20425;-37
2023/11/14 06:07:12;;;;;;;11.83;4.33;;;12.30;99.90;;;;;;5051634;28;20299;-36
2023/11/14 06:09:41;;;;;;;18.80;5.40;;;12.40;99.90;;;;;;5041862;28;20926;-41
2023/11/14 06:12:10;;;;;;;14.52;4.47;;;12.30;99.90;;;;;;5042687;28;21211;-40
2023/11/14 06:14:38;;;;;;;11.27;4.57;;;12.30;99.90;;;;;;5040920;28;20215;-39
2023/11/14 06:17:04;;;;;;;12.87;4.33;;;12.40;99.90;;;;;;5070908;28;20429;-35
2023/11/14 06:19:32;;;;;;;12.57;4.18;;;12.30;99.90;;;;;;5083111;28;20406;-35
2023/11/14 06:21:58;;;;;;;19.83;4.57;;;12.30;99.90;;;;;;5083195;28;20210;-39
2023/11/14 06:24:24;;;;;;;15.63;5.37;;;12.40;99.90;;;;;;5082783;28;20459;-41
2023/11/14 06:26:53;;;;;;;23.60;4.60;;;12.30;99.90;;;;;;5082707;28;20499;-41
2023/11/14 06:29:19;;;;;;;14.03;4.80;;;12.30;99.90;;;;;;5059943;28;20421;-39
2023/11/14 06:31:45;;;;;;;16.30;4.20;;;12.30;99.90;;;;;;5024294;28;21286;-41
2023/11/14 06:34:12;;;;;;;15.57;5.40;;;12.30;99.90;;;;;;5042562;28;20454;-41
2023/11/14 06:36:40;;;;;;;14.70;4.83;;;12.30;99.90;;;;;;5040863;28;20202;-38
2023/11/14 06:39:06;;;;;;;10.15;4.00;;;12.30;99.90;;;;;;5042089;28;20450;-38
2023/11/14 06:41:34;;;;;;;23.60;6.73;;;12.30;99.90;;;;;;5043864;28;20947;-40
2023/11/14 06:44:03;;;;;;;17.53;5.00;;;12.40;99.90;;;;;;5054828;28;20484;-40
2023/11/14 06:46:29;;;;;;;12.93;4.00;;;12.40;99.90;;;;;;5042067;28;20527;-39
2023/11/14 06:48:57;;;;;;;14.63;5.38;;;12.30;99.90;;;;;;5040336;28;20480;-39
2023/11/14 06:51:23;;;;;;;13.20;5.07;;;12.30;99.90;;;;;;5051234;28;20223;-38
2023/11/14 06:53:51;;;;;;;10.70;4.47;;;12.40;99.90;;;;;;5063377;28;20459;-39
2023/11/14 06:56:20;;;;;;;18.73;5.60;;;12.40;99.90;;;;;;5059184;28;20567;-35
2023/11/14 06:58:48;;;;;;;14.73;4.03;;;12.30;99.90;;;;;;5046474;28;20519;-42
2023/11/14 07:01:18;;;;;;;13.98;5.00;;;12.30;99.90;;;;;;5048886;28;20473;-40
2023/11/14 07:03:44;;;;;;;19.27;5.28;;;12.30;99.90;;;;;;5039179;28;20925;-39
2023/11/14 07:06:11;;;;;;;13.50;5.10;;;12.40;99.90;;;;;;5040642;28;20229;-42
2023/11/14 07:08:46;;;;;;;15.50;4.57;;;12.40;99.90;;;;;;5026365;28;20436;-37
2023/11/14 07:11:14;;;;;;;20.73;4.43;;;12.40;99.90;;;;;;5042011;28;20185;-35
2023/11/14 07:13:43;;;;;;;17.98;4.78;;;12.40;99.90;;;;;;5042040;28;20472;-41
2023/11/14 07:16:12;;;;;;;28.23;5.43;;;12.40;99.90;;;;;;5042141;28;20427;-41
2023/11/14 07:18:40;;;;;;;18.33;4.97;;;12.50;99.90;;;;;;5042280;28;20484;-36
2023/11/14 07:21:06;;;;;;;16.10;4.45;;;12.40;99.90;;;;;;5032575;28;21150;-36
2023/11/14 07:23:35;;;;;;;17.40;5.10;;;12.40;99.90;;;;;;5042138;28;20191;-40
2023/11/14 07:26:07;;;;;;;16.53;4.70;;;12.50;99.90;;;;;;5042407;28;20430;-38
2023/11/14 07:28:34;;;;;;;12.37;4.40;;;12.40;99.90;;;;;;5042466;28;20439;-37
2023/11/14 07:31:00;;;;;;;12.40;4.90;;;12.40;99.90;;;;;;5060448;28;20833;-37
2023/11/14 07:33:30;;;;;;;14.27;4.43;;;12.40;99.90;;;;;;5042198;28;20803;-34
2023/11/14 07:35:56;;;;;;;20.63;5.20;;;12.30;99.90;;;;;;5060122;28;20435;-40
2023/11/14 07:38:24;;;;;;;14.10;5.80;;;12.30;99.90;;;;;;5042741;28;20420;-35
2023/11/14 07:40:53;;;;;;;14.07;4.70;;;12.30;99.90;;;;;;5060653;28;20533;-40
2023/11/14 07:43:27;;;;;;;13.73;4.55;;;12.30;99.90;;;;;;5063333;28;20441;-42
2023/11/14 07:45:53;;;;;;;24.10;5.77;;;12.30;99.90;;;;;;5041694;28;20191;-42
2023/11/14 07:48:19;;;;;;;14.97;4.40;;;12.40;99.90;;;;;;5040741;28;20429;-38
2023/11/14 07:50:47;;;;;;;18.53;4.73;;;12.30;99.90;;;;;;5017640;22;20500;-71
2023/11/14 07:53:16;;;;;;;18.30;5.93;;;12.30;99.90;;;;;;4999082;28;20470;-69
2023/11/14 07:55:44;;;;;;;11.50;4.23;;;12.30;99.90;;;;;;5008368;28;21294;-69
2023/11/14 07:58:11;;;;;;;9.93;4.37;;;12.30;99.90;;;;;;4987908;28;20795;-68
2023/11/14 08:00:40;;;;;;;12.63;4.43;;;12.30;99.90;;;;;;4992229;28;20511;-69
2023/11/14 08:03:10;;;;;;;14.53;4.80;;;12.30;99.90;;;;;;4968107;28;20433;-69
2023/11/14 08:05:40;;;;;;;21.55;6.43;;;12.30;99.90;;;;;;5010575;28;20438;-69
2023/11/14 08:08:09;;;;;;;16.37;5.20;;;12.30;99.90;;;;;;5020865;28;20190;-69
2023/11/14 08:10:41;;;;;;;15.50;5.10;;;12.30;99.90;;;;;;5007393;28;20466;-69
2023/11/14 08:13:12;;;;;;;13.00;4.63;;;12.30;99.90;;;;;;5000528;28;20451;-69
2023/11/14 08:15:43;;;;;;;17.95;5.00;;;12.30;99.90;;;;;;5009725;28;20901;-69
2023/11/14 08:18:09;;;;;;;15.87;5.00;;;12.30;99.90;;;;;;5000078;28;20267;-69
2023/11/14 08:20:36;;;;;;;14.67;4.03;;;12.30;99.90;;;;;;4968774;28;21251;-69
2023/11/14 08:23:04;;;;;;;14.27;4.20;;;12.40;99.90;;;;;;4975963;28;20300;-70
2023/11/14 08:25:31;;;;;;;14.53;4.50;;;12.30;99.90;;;;;;4970148;28;20455;-69
2023/11/14 08:28:00;;;;;;;15.38;4.93;;;12.30;99.90;;;;;;4991318;28;20522;-69
2023/11/14 08:30:28;;;;;;;16.30;4.63;;;12.40;99.90;;;;;;4974854;28;20774;-69
2023/11/14 08:32:57;;;;;;;11.30;4.40;;;12.40;99.90;;;;;;4992169;28;20430;-69
2023/11/14 08:35:26;;;;;;;12.00;4.33;;;12.40;99.90;;;;;;4999018;28;20482;-69
2023/11/14 08:37:53;;;;;;;17.90;5.80;;;12.40;99.90;;;;;;4996205;28;20512;-70
2023/11/14 08:40:22;;;;;;;12.70;4.60;;;12.40;99.90;;;;;;4999830;28;20435;-70
2023/11/14 08:42:53;;;;;;;19.67;4.97;;;12.40;99.90;;;;;;5017084;28;20443;-69
2023/11/14 08:45:23;;;;;;;14.40;5.10;;;12.30;99.90;;;;;;4984300;28;20460;-69
2023/11/14 08:47:50;;;;;;;11.90;3.63;;;12.30;99.90;;;;;;4993222;28;20459;-70
2023/11/14 08:50:21;;;;;;;13.60;4.37;;;12.30;99.90;;;;;;4992016;28;20457;-69
2023/11/14 08:52:49;;;;;;;12.17;3.93;;;12.40;99.90;;;;;;4998992;28;20448;-69
2023/11/14 08:55:15;;;;;;;13.87;4.40;;;12.40;99.90;;;;;;4994675;28;20536;-69
2023/11/14 08:57:43;;;;;;;19.07;4.37;;;12.40;99.90;;;;;;5009328;28;20872;-69
2023/11/14 09:00:13;;;;;;;12.07;4.70;;;12.40;99.90;;;;;;5015849;28;20945;-70
2023/11/14 09:02:41;;;;;;;11.90;4.37;;;12.40;99.90;;;;;;5010986;28;20869;-69
2023/11/14 09:05:10;;;;;;;14.70;4.67;;;12.40;99.90;;;;;;5013296;28;20888;-69
2023/11/14 09:07:39;;;;;;;11.00;5.00;;;12.40;99.90;;;;;;4995330;28;20451;-69
2023/11/14 09:10:06;;;;;;;15.57;4.77;;;12.40;99.90;;;;;;4998945;28;20547;-69
2023/11/14 09:12:32;;;;;;;15.57;4.05;;;12.40;99.90;;;;;;5013583;28;20951;-69
2023/11/14 09:15:05;;;;;;;11.30;4.87;;;12.40;99.90;;;;;;4993822;28;20996;-69
2023/11/14 09:17:35;;;;;;;13.20;5.10;;;12.50;99.90;;;;;;4995043;28;20439;-69
2023/11/14 09:20:02;;;;;;;14.47;4.60;;;12.40;99.90;;;;;;4975848;28;20438;-69
2023/11/14 09:22:31;;;;;;;13.47;4.87;;;12.40;99.90;;;;;;5011803;28;20446;-69
2023/11/14 09:24:57;;;;;;;17.40;4.80;;;12.40;99.90;;;;;;5015180;28;21112;-70
2023/11/14 09:27:23;;;;;;;13.43;4.57;;;12.50;99.90;;;;;;4974098;28;20458;-69
2023/11/14 09:29:54;;;;;;;14.23;4.43;;;12.40;99.90;;;;;;4980859;28;20797;-69
2023/11/14 09:32:21;;;;;;;18.67;5.00;;;12.40;99.90;;;;;;5003558;28;20564;-69
2023/11/14 09:34:47;;;;;;;13.20;5.00;;;12.40;99.90;;;;;;5001067;28;20473;-69
2023/11/14 09:37:13;;;;;;;12.77;4.50;;;12.50;99.90;;;;;;4970527;28;21018;-69
2023/11/14 09:39:42;;;;;;;11.20;4.93;;;12.50;99.90;;;;;;5002429;28;20409;-70
2023/11/14 09:42:09;;;;;;;15.60;4.80;;;12.50;99.90;;;;;;4970919;28;20443;-69
2023/11/14 09:44:36;;;;;;;15.03;4.93;;;12.50;99.90;;;;;;4989394;28;20460;-69
2023/11/14 09:47:03;;;;;;;16.97;4.90;;;12.50;99.90;;;;;;4997333;28;20937;-70
2023/11/14 09:49:32;;;;;;;13.77;4.20;;;12.40;99.90;;;;;;5014300;28;20431;-69
2023/11/14 09:52:03;;;;;;;20.83;5.70;;;12.50;99.90;;;;;;4994136;28;20451;-69
2023/11/14 09:54:33;;;;;;;15.13;4.40;;;12.50;99.90;;;;;;5003704;28;21043;-70
2023/11/14 09:56:59;;;;;;;16.30;4.77;;;12.50;99.90;;;;;;4973652;28;20477;-69
2023/11/14 09:59:27;;;;;;;12.88;4.10;;;12.50;99.90;;;;;;4994001;28;20443;-70
2023/11/14 10:01:54;;;;;;;12.80;4.73;;;12.50;99.90;;;;;;5007994;28;20195;-69
2023/11/14 10:04:20;;;;;;;12.83;4.50;;;12.50;99.90;;;;;;4988711;28;20547;-69
2023/11/14 10:06:46;;;;;;;17.27;4.17;;;12.50;99.90;;;;;;5010999;28;20565;-69
2023/11/14 10:09:16;;;;;;;20.00;4.70;;;12.60;99.90;;;;;;5003577;28;20427;-69
2023/11/14 10:11:46;;;;;;;14.60;4.60;;;12.50;99.90;;;;;;4994290;28;20440;-69
2023/11/14 10:14:15;;;;;;;12.57;5.25;;;12.60;99.90;;;;;;4983355;28;20597;-70
2023/11/14 10:16:55;;;;;;;15.73;4.53;;;12.70;99.90;;;;;;4989138;28;20608;-70
2023/11/14 10:19:21;;;;;;;15.93;5.23;;;12.70;99.90;;;;;;4983519;28;20199;-70
2023/11/14 10:21:47;;;;;;;10.40;4.03;;;12.80;99.90;;;;;;5009973;28;20441;-69
2023/11/14 10:24:15;;;;;;;18.88;5.35;;;12.80;99.90;;;;;;4980267;28;20546;-70
2023/11/14 10:26:52;;;;;;;12.90;4.75;;;12.80;99.90;;;;;;5009355;28;20250;-69
2023/11/14 10:29:20;;;;;;;16.25;4.88;;;12.80;99.90;;;;;;4974945;28;20253;-69
2023/11/14 10:31:48;;;;;;;14.10;4.43;;;12.90;99.90;;;;;;4994114;28;20218;-70
2023/11/14 10:34:34;;;;;;;14.53;4.67;;;12.90;99.90;;;;;;5018338;28;20467;-68
2023/11/14 10:37:03;;;;;;;11.33;3.67;;;12.90;99.90;;;;;;4997942;28;20451;-69
2023/11/14 10:39:32;;;;;;;11.13;4.73;;;12.80;99.90;;;;;;4991283;28;20876;-70
2023/11/14 10:42:06;;;;;;;7.93;3.30;;;12.80;99.90;;;;;;4983371;28;20421;-70
2023/11/14 10:44:32;;;;;;;14.20;5.10;;;12.80;99.90;;;;;;4977794;28;20462;-69
2023/11/14 10:46:59;;;;;;;13.00;4.37;;;12.80;99.90;;;;;;5013944;28;20187;-69
2023/11/14 10:49:43;;;;;;;12.70;4.70;;;12.80;99.90;;;;;;4984322;28;21123;-70
2023/11/14 10:52:15;;;;;;;12.40;4.20;;;12.80;99.90;;;;;;4999033;28;20446;-69
2023/11/14 10:54:44;;;;;;;14.70;4.90;;;12.80;99.90;;;;;;4980222;28;20227;-69
2023/11/14 10:57:16;;;;;;;14.87;4.93;;;12.80;99.90;;;;;;5011729;28;20606;-69
2023/11/14 10:59:45;;;;;;;11.13;4.27;;;12.80;99.90;;;;;;5011404;28;20481;-70
2023/11/14 11:02:15;;;;;;;13.97;4.40;;;12.80;99.90;;;;;;4988402;28;20430;-70
2023/11/14 11:04:44;;;;;;;11.33;4.10;;;12.80;99.90;;;;;;5016840;28;20475;-69
2023/11/14 11:07:12;;;;;;;10.10;4.20;;;12.80;99.90;;;;;;4993188;28;21189;-69
2023/11/14 11:09:41;;;;;;;7.93;3.60;;;12.80;99.90;;;;;;4998873;28;20550;-70
2023/11/14 11:12:12;;;;;;;15.13;4.80;;;12.90;99.90;;;;;;5001422;28;20514;-69
2023/11/14 11:14:43;;;;;;;9.80;3.50;;;12.90;99.90;;;;;;4995606;28;20851;-68
2023/11/14 11:17:10;;;;;;;10.63;4.20;;;12.90;99.90;;;;;;4999103;28;20811;-70
2023/11/14 11:19:37;;;;;;;7.33;3.17;;;12.80;99.90;;;;;;5011846;28;20448;-70
2023/11/14 11:22:13;;;;;;;16.33;4.63;;;12.80;99.90;;;;;;5014803;28;20586;-69
2023/11/14 11:25:21;;;;;;;9.73;4.23;;;12.80;99.90;;;;;;4984361;28;20452;-70
2023/11/14 11:27:49;;;;;;;5.80;3.07;;;12.80;99.90;;;;;;4980440;28;20438;-70
2023/11/14 11:30:15;;;;;;;7.10;3.33;;;12.80;99.90;;;;;;4993439;28;20467;-70
2023/11/14 11:32:45;;;;;;;8.60;4.10;;;12.80;99.90;;;;;;4986513;28;20420;-69
2023/11/14 11:35:20;;;;;;;8.00;3.83;;;12.80;99.90;;;;;;5010993;28;20894;-70
2023/11/14 11:37:52;;;;;;;7.33;3.50;;;12.80;99.90;;;;;;4985110;28;20441;-70
2023/11/14 11:40:25;;;;;;;15.00;3.67;;;12.80;99.90;;;;;;4999285;28;20433;-69
2023/11/14 11:43:15;;;;;;;10.50;3.93;;;12.80;99.90;;;;;;5002378;28;20934;-69
2023/11/14 11:45:45;;;;;;;8.83;3.17;;;12.80;99.90;;;;;;4993446;28;20427;-69
2023/11/14 11:48:26;;;;;;;12.52;3.88;;;12.80;99.90;;;;;;5001343;28;20830;-69
2023/11/14 11:50:53;;;;;;;11.75;4.57;;;12.80;99.90;;;;;;4980572;28;20207;-69
2023/11/14 11:53:39;;;;;;;8.93;3.77;;;12.90;99.90;;;;;;5007396;28;20309;-69
2023/11/14 11:56:10;;;;;;;9.60;4.37;;;12.90;99.90;;;;;;5007414;28;20491;-69
2023/11/14 11:58:47;;;;;;;9.60;4.33;;;12.90;99.90;;;;;;5000971;28;20994;-69
2023/11/14 12:01:15;;;;;;;11.40;3.60;;;12.90;99.90;;;;;;5000274;28;20413;-69
2023/11/14 12:03:44;;;;;;;8.03;3.63;;;12.90;99.90;;;;;;4982185;28;20442;-69
2023/11/14 12:06:15;;;;;;;14.00;4.30;;;12.80;99.90;;;;;;5001851;28;20441;-69
2023/11/14 12:08:41;;;;;;;12.93;3.70;;;12.80;99.90;;;;;;5002134;28;20423;-69
2023/11/14 12:11:14;;;;;;;13.48;4.00;;;12.80;99.90;;;;;;4984304;28;20518;-69
2023/11/14 12:13:53;;;;;;;10.10;3.70;;;12.80;99.90;;;;;;4984769;28;20224;-69
2023/11/14 12:16:25;;;;;;;14.13;4.20;;;12.90;99.90;;;;;;5010465;28;20926;-69
2023/11/14 12:18:55;;;;;;;10.63;3.63;;;12.90;99.90;;;;;;4984257;28;20434;-70
2023/11/14 12:21:23;;;;;;;7.70;3.90;;;12.90;99.90;;;;;;4981375;28;20482;-69
2023/11/14 12:23:51;;;;;;;11.90;4.23;;;12.90;99.90;;;;;;4968356;28;20246;-69
2023/11/14 12:26:17;;;;;;;8.20;3.67;;;12.90;99.90;;;;;;4965501;28;20974;-69
2023/11/14 12:28:44;;;;;;;8.75;3.85;;;12.90;99.90;;;;;;5001156;28;20425;-69
2023/11/14 12:31:13;;;;;;;8.63;3.60;;;12.90;99.90;;;;;;4965903;28;20193;-69
2023/11/14 12:33:56;;;;;;;10.73;3.40;;;12.90;99.90;;;;;;4965055;28;20462;-70
2023/11/14 12:36:29;;;;;;;10.90;4.03;;;12.90;99.90;;;;;;5001289;28;20990;-69
2023/11/14 12:39:11;;;;;;;9.57;3.70;;;12.90;99.90;;;;;;4987902;28;20431;-69
2023/11/14 12:41:41;;;;;;;5.70;3.07;;;12.90;99.90;;;;;;5003817;28;20775;-69
2023/11/14 12:44:12;;;;;;;10.27;3.40;;;12.90;99.90;;;;;;4970300;28;20507;-69
2023/11/14 12:46:46;;;;;;;5.50;3.10;;;12.90;99.90;;;;;;4971847;28;20438;-69